sensor_id;sensor_type;location;lat;lon;timestamp;temperature;humidity
59208;DHT22;44977;53.132;6.408;2023-08-01T00:04:29;16.50;99.90
59208;DHT22;44977;53.132;6.408;2023-08-01T00:09:30;16.50;99.90
59208;DHT22;44977;53.132;6.408;2023-08-01T00:14:31;16.50;99.90
59208;DHT22;44977;53.132;6.408;2023-08-01T00:19:31;16.40;99.90
59208;DHT22;44977;53.132;6.408;2023-08-01T00:24:32;16.40;99.90
59208;DHT22;44977;53.132;6.408;2023-08-01T00:29:33;16.30;99.90
59208;DHT22;44977;53.132;6.408;2023-08-01T00:34:33;16.30;99.90
59208;DHT22;44977;53.132;6.408;2023-08-01T00:39:34;16.20;99.90
59208;DHT22;44977;53.132;6.408;2023-08-01T00:44:35;16.20;99.90
59208;DHT22;44977;53.132;6.408;2023-08-01T00:49:35;16.20;99.90
59208;DHT22;44977;53.132;6.408;2023-08-01T00:54:36;16.10;99.90
59208;DHT22;44977;53.132;6.408;2023-08-01T00:59:37;16.10;99.90
59208;DHT22;44977;53.132;6.408;2023-08-01T01:04:38;16.10;99.90
59208;DHT22;44977;53.132;6.408;2023-08-01T01:09:38;16.00;99.90
59208;DHT22;44977;53.132;6.408;2023-08-01T01:14:39;16.00;99.90
59208;DHT22;44977;53.132;6.408;2023-08-01T01:19:40;15.90;99.90
59208;DHT22;44977;53.132;6.408;2023-08-01T01:24:41;15.80;99.90
59208;DHT22;44977;53.132;6.408;2023-08-01T01:29:43;15.80;99.90
59208;DHT22;44977;53.132;6.408;2023-08-01T01:34:45;15.70;99.90
59208;DHT22;44977;53.132;6.408;2023-08-01T01:39:46;15.70;99.90
59208;DHT22;44977;53.132;6.408;2023-08-01T01:44:46;15.60;99.90
59208;DHT22;44977;53.132;6.408;2023-08-01T01:49:47;15.60;99.90
59208;DHT22;44977;53.132;6.408;2023-08-01T01:54:48;15.60;99.90
59208;DHT22;44977;53.132;6.408;2023-08-01T01:59:48;15.50;99.90
59208;DHT22;44977;53.132;6.408;2023-08-01T02:04:50;15.50;99.90
59208;DHT22;44977;53.132;6.408;2023-08-01T02:09:51;15.50;99.90
59208;DHT22;44977;53.132;6.408;2023-08-01T02:14:51;15.40;99.90
59208;DHT22;44977;53.132;6.408;2023-08-01T02:19:52;15.40;99.90
59208;DHT22;44977;53.132;6.408;2023-08-01T02:24:53;15.30;99.90
59208;DHT22;44977;53.132;6.408;2023-08-01T02:29:54;15.20;99.90
59208;DHT22;44977;53.132;6.408;2023-08-01T02:34:54;15.30;99.90
59208;DHT22;44977;53.132;6.408;2023-08-01T02:39:55;15.20;99.90
59208;DHT22;44977;53.132;6.408;2023-08-01T02:44:56;15.20;99.90
59208;DHT22;44977;53.132;6.408;2023-08-01T02:49:56;15.10;99.90
59208;DHT22;44977;53.132;6.408;2023-08-01T02:54:57;15.10;99.90
59208;DHT22;44977;53.132;6.408;2023-08-01T02:59:58;15.10;99.90
59208;DHT22;44977;53.132;6.408;2023-08-01T03:04:59;15.10;99.90
59208;DHT22;44977;53.132;6.408;2023-08-01T03:10:00;15.10;99.90
59208;DHT22;44977;53.132;6.408;2023-08-01T03:15:01;15.10;99.90
59208;DHT22;44977;53.132;6.408;2023-08-01T03:20:02;15.20;99.90
59208;DHT22;44977;53.132;6.408;2023-08-01T03:25:04;15.20;99.90
59208;DHT22;44977;53.132;6.408;2023-08-01T03:30:07;15.30;99.90
59208;DHT22;44977;53.132;6.408;2023-08-01T03:35:09;15.30;99.90
59208;DHT22;44977;53.132;6.408;2023-08-01T03:40:10;15.30;99.90
59208;DHT22;44977;53.132;6.408;2023-08-01T03:45:10;15.30;99.90
59208;DHT22;44977;53.132;6.408;2023-08-01T03:50:11;15.30;99.90
59208;DHT22;44977;53.132;6.408;2023-08-01T03:55:14;15.30;99.90
59208;DHT22;44977;53.132;6.408;2023-08-01T04:00:14;15.20;99.90
59208;DHT22;44977;53.132;6.408;2023-08-01T04:05:18;15.20;99.90
59208;DHT22;44977;53.132;6.408;2023-08-01T04:10:19;15.20;99.90
59208;DHT22;44977;53.132;6.408;2023-08-01T04:15:20;15.20;99.90
59208;DHT22;44977;53.132;6.408;2023-08-01T04:20:20;15.20;99.90
59208;DHT22;44977;53.132;6.408;2023-08-01T04:25:21;15.20;99.90
59208;DHT22;44977;53.132;6.408;2023-08-01T04:30:24;15.20;99.90
59208;DHT22;44977;53.132;6.408;2023-08-01T04:35:25;15.20;99.90
59208;DHT22;44977;53.132;6.408;2023-08-01T04:40:25;15.10;99.90
59208;DHT22;44977;53.132;6.408;2023-08-01T04:45:26;15.10;99.90
59208;DHT22;44977;53.132;6.408;2023-08-01T04:50:27;15.10;99.90
59208;DHT22;44977;53.132;6.408;2023-08-01T04:55:29;15.10;99.90
59208;DHT22;44977;53.132;6.408;2023-08-01T05:00:30;15.10;99.90
59208;DHT22;44977;53.132;6.408;2023-08-01T05:05:31;15.20;99.90
59208;DHT22;44977;53.132;6.408;2023-08-01T05:10:31;15.20;99.90
59208;DHT22;44977;53.132;6.408;2023-08-01T05:15:32;15.20;99.90
59208;DHT22;44977;53.132;6.408;2023-08-01T05:20:33;15.20;99.90
59208;DHT22;44977;53.132;6.408;2023-08-01T05:25:34;15.30;99.90
59208;DHT22;44977;53.132;6.408;2023-08-01T05:30:35;15.30;99.90
59208;DHT22;44977;53.132;6.408;2023-08-01T05:35:35;15.30;99.90
59208;DHT22;44977;53.132;6.408;2023-08-01T05:40:36;15.30;99.90
59208;DHT22;44977;53.132;6.408;2023-08-01T05:45:37;15.30;99.90
59208;DHT22;44977;53.132;6.408;2023-08-01T05:50:37;15.40;99.90
59208;DHT22;44977;53.132;6.408;2023-08-01T05:55:38;15.40;99.90
59208;DHT22;44977;53.132;6.408;2023-08-01T06:00:39;15.40;99.90
59208;DHT22;44977;53.132;6.408;2023-08-01T06:05:40;15.50;99.90
59208;DHT22;44977;53.132;6.408;2023-08-01T06:10:41;15.50;99.90
59208;DHT22;44977;53.132;6.408;2023-08-01T06:15:42;15.50;99.90
59208;DHT22;44977;53.132;6.408;2023-08-01T06:20:42;15.50;99.90
59208;DHT22;44977;53.132;6.408;2023-08-01T06:25:43;15.50;99.90
59208;DHT22;44977;53.132;6.408;2023-08-01T06:30:44;15.40;99.90
59208;DHT22;44977;53.132;6.408;2023-08-01T06:35:45;15.40;99.90
59208;DHT22;44977;53.132;6.408;2023-08-01T06:40:46;15.40;99.90
59208;DHT22;44977;53.132;6.408;2023-08-01T06:45:47;15.40;99.90
59208;DHT22;44977;53.132;6.408;2023-08-01T06:50:47;15.50;99.90
59208;DHT22;44977;53.132;6.408;2023-08-01T06:55:48;15.60;99.90
59208;DHT22;44977;53.132;6.408;2023-08-01T07:00:49;15.80;99.90
59208;DHT22;44977;53.132;6.408;2023-08-01T07:05:49;15.80;99.90
59208;DHT22;44977;53.132;6.408;2023-08-01T07:10:50;15.90;99.90
59208;DHT22;44977;53.132;6.408;2023-08-01T07:15:51;15.90;99.90
59208;DHT22;44977;53.132;6.408;2023-08-01T07:21:02;15.90;99.90
59208;DHT22;44977;53.132;6.408;2023-08-01T07:26:03;15.90;99.90
59208;DHT22;44977;53.132;6.408;2023-08-01T07:31:05;15.80;99.90
59208;DHT22;44977;53.132;6.408;2023-08-01T07:36:06;15.80;99.90
59208;DHT22;44977;53.132;6.408;2023-08-01T07:41:07;15.90;99.90
59208;DHT22;44977;53.132;6.408;2023-08-01T07:46:08;15.80;99.90
59208;DHT22;44977;53.132;6.408;2023-08-01T07:51:10;15.90;99.90
59208;DHT22;44977;53.132;6.408;2023-08-01T07:56:12;15.80;99.90
59208;DHT22;44977;53.132;6.408;2023-08-01T08:01:12;15.80;99.90
59208;DHT22;44977;53.132;6.408;2023-08-01T08:06:13;15.90;99.90
59208;DHT22;44977;53.132;6.408;2023-08-01T08:11:14;16.00;99.90
59208;DHT22;44977;53.132;6.408;2023-08-01T08:16:16;15.90;99.90
59208;DHT22;44977;53.132;6.408;2023-08-01T08:21:17;16.00;99.90
59208;DHT22;44977;53.132;6.408;2023-08-01T08:26:17;15.90;99.90
59208;DHT22;44977;53.132;6.408;2023-08-01T08:31:18;15.80;99.90
59208;DHT22;44977;53.132;6.408;2023-08-01T08:36:19;15.80;99.90
59208;DHT22;44977;53.132;6.408;2023-08-01T08:41:21;15.80;99.90
59208;DHT22;44977;53.132;6.408;2023-08-01T08:46:26;15.90;99.90
59208;DHT22;44977;53.132;6.408;2023-08-01T08:51:28;15.90;99.90
59208;DHT22;44977;53.132;6.408;2023-08-01T08:56:29;16.00;99.90
59208;DHT22;44977;53.132;6.408;2023-08-01T09:01:31;16.00;99.90
59208;DHT22;44977;53.132;6.408;2023-08-01T09:06:42;16.10;99.90
59208;DHT22;44977;53.132;6.408;2023-08-01T09:11:47;16.10;99.90
59208;DHT22;44977;53.132;6.408;2023-08-01T09:16:48;16.10;99.90
59208;DHT22;44977;53.132;6.408;2023-08-01T09:21:49;16.10;99.90
59208;DHT22;44977;53.132;6.408;2023-08-01T09:26:51;16.20;99.90
59208;DHT22;44977;53.132;6.408;2023-08-01T09:31:52;16.30;99.90
59208;DHT22;44977;53.132;6.408;2023-08-01T09:36:58;16.60;99.90
59208;DHT22;44977;53.132;6.408;2023-08-01T09:42:01;16.80;99.90
59208;DHT22;44977;53.132;6.408;2023-08-01T09:47:04;16.90;99.90
59208;DHT22;44977;53.132;6.408;2023-08-01T09:52:05;17.00;99.90
59208;DHT22;44977;53.132;6.408;2023-08-01T09:57:09;17.00;99.90
59208;DHT22;44977;53.132;6.408;2023-08-01T10:02:15;16.90;99.90
59208;DHT22;44977;53.132;6.408;2023-08-01T10:07:23;16.80;99.90
59208;DHT22;44977;53.132;6.408;2023-08-01T10:12:26;16.70;99.90
59208;DHT22;44977;53.132;6.408;2023-08-01T10:17:28;16.70;99.90
59208;DHT22;44977;53.132;6.408;2023-08-01T10:22:29;16.70;99.90
59208;DHT22;44977;53.132;6.408;2023-08-01T10:27:30;16.80;99.90
59208;DHT22;44977;53.132;6.408;2023-08-01T10:32:36;17.00;99.90
59208;DHT22;44977;53.132;6.408;2023-08-01T10:37:44;17.30;99.90
59208;DHT22;44977;53.132;6.408;2023-08-01T10:42:46;17.80;99.90
59208;DHT22;44977;53.132;6.408;2023-08-01T10:47:49;17.90;99.90
59208;DHT22;44977;53.132;6.408;2023-08-01T10:53:05;17.80;99.90
59208;DHT22;44977;53.132;6.408;2023-08-01T10:58:06;17.80;99.90
59208;DHT22;44977;53.132;6.408;2023-08-01T11:03:07;18.10;99.90
59208;DHT22;44977;53.132;6.408;2023-08-01T11:08:08;18.40;99.90
59208;DHT22;44977;53.132;6.408;2023-08-01T11:13:11;18.70;99.90
59208;DHT22;44977;53.132;6.408;2023-08-01T11:18:12;18.60;99.90
59208;DHT22;44977;53.132;6.408;2023-08-01T11:23:14;18.60;99.90
59208;DHT22;44977;53.132;6.408;2023-08-01T11:28:16;18.60;99.90
59208;DHT22;44977;53.132;6.408;2023-08-01T11:33:21;18.60;99.90
59208;DHT22;44977;53.132;6.408;2023-08-01T11:38:23;18.50;99.90
59208;DHT22;44977;53.132;6.408;2023-08-01T11:43:24;18.60;99.90
59208;DHT22;44977;53.132;6.408;2023-08-01T11:48:25;18.60;99.90
59208;DHT22;44977;53.132;6.408;2023-08-01T11:53:26;18.60;99.90
59208;DHT22;44977;53.132;6.408;2023-08-01T11:58:31;18.50;99.90
59208;DHT22;44977;53.132;6.408;2023-08-01T12:03:45;18.40;99.90
59208;DHT22;44977;53.132;6.408;2023-08-01T12:08:47;18.30;99.90
59208;DHT22;44977;53.132;6.408;2023-08-01T12:13:48;18.40;99.90
59208;DHT22;44977;53.132;6.408;2023-08-01T12:18:49;18.80;99.90
59208;DHT22;44977;53.132;6.408;2023-08-01T12:23:49;19.00;99.90
59208;DHT22;44977;53.132;6.408;2023-08-01T12:28:50;18.90;99.90
59208;DHT22;44977;53.132;6.408;2023-08-01T12:33:51;18.90;99.90
59208;DHT22;44977;53.132;6.408;2023-08-01T12:38:53;19.00;99.90
59208;DHT22;44977;53.132;6.408;2023-08-01T12:43:54;19.30;99.90
59208;DHT22;44977;53.132;6.408;2023-08-01T12:48:55;19.30;99.90
59208;DHT22;44977;53.132;6.408;2023-08-01T12:53:55;19.20;99.90
59208;DHT22;44977;53.132;6.408;2023-08-01T12:58:56;19.10;99.90
59208;DHT22;44977;53.132;6.408;2023-08-01T13:03:57;19.30;99.90
59208;DHT22;44977;53.132;6.408;2023-08-01T13:08:57;19.20;99.90
59208;DHT22;44977;53.132;6.408;2023-08-01T13:13:59;19.00;99.90
59208;DHT22;44977;53.132;6.408;2023-08-01T13:18:59;18.70;99.90
59208;DHT22;44977;53.132;6.408;2023-08-01T13:24:00;18.60;99.90
59208;DHT22;44977;53.132;6.408;2023-08-01T13:29:05;18.60;99.90
59208;DHT22;44977;53.132;6.408;2023-08-01T13:34:06;18.60;99.90
59208;DHT22;44977;53.132;6.408;2023-08-01T13:39:06;18.50;99.90
59208;DHT22;44977;53.132;6.408;2023-08-01T13:44:07;18.40;99.90
59208;DHT22;44977;53.132;6.408;2023-08-01T13:49:09;18.20;99.90
59208;DHT22;44977;53.132;6.408;2023-08-01T13:54:09;18.30;99.90
59208;DHT22;44977;53.132;6.408;2023-08-01T13:59:10;18.30;99.90
59208;DHT22;44977;53.132;6.408;2023-08-01T14:04:11;18.20;99.90
59208;DHT22;44977;53.132;6.408;2023-08-01T14:09:14;18.40;99.90
59208;DHT22;44977;53.132;6.408;2023-08-01T14:14:14;18.60;99.90
59208;DHT22;44977;53.132;6.408;2023-08-01T14:19:15;18.70;99.90
59208;DHT22;44977;53.132;6.408;2023-08-01T14:24:15;18.60;99.90
59208;DHT22;44977;53.132;6.408;2023-08-01T14:29:20;18.50;99.90
59208;DHT22;44977;53.132;6.408;2023-08-01T14:34:22;18.50;99.90
59208;DHT22;44977;53.132;6.408;2023-08-01T14:39:23;18.50;99.90
59208;DHT22;44977;53.132;6.408;2023-08-01T14:44:24;18.50;99.90
59208;DHT22;44977;53.132;6.408;2023-08-01T14:49:25;18.40;99.90
59208;DHT22;44977;53.132;6.408;2023-08-01T14:54:28;18.40;99.90
59208;DHT22;44977;53.132;6.408;2023-08-01T14:59:28;18.40;99.90
59208;DHT22;44977;53.132;6.408;2023-08-01T15:04:29;18.30;99.90
59208;DHT22;44977;53.132;6.408;2023-08-01T15:09:30;18.20;99.90
59208;DHT22;44977;53.132;6.408;2023-08-01T15:14:31;18.20;99.90
59208;DHT22;44977;53.132;6.408;2023-08-01T15:19:35;18.10;99.90
59208;DHT22;44977;53.132;6.408;2023-08-01T15:24:36;18.00;99.90
59208;DHT22;44977;53.132;6.408;2023-08-01T15:29:37;18.00;99.90
59208;DHT22;44977;53.132;6.408;2023-08-01T15:34:38;18.00;99.90
59208;DHT22;44977;53.132;6.408;2023-08-01T15:39:38;18.00;99.90
59208;DHT22;44977;53.132;6.408;2023-08-01T15:44:39;18.10;99.90
59208;DHT22;44977;53.132;6.408;2023-08-01T15:49:40;18.30;99.90
59208;DHT22;44977;53.132;6.408;2023-08-01T15:54:41;18.50;99.90
59208;DHT22;44977;53.132;6.408;2023-08-01T15:59:41;18.40;99.90
59208;DHT22;44977;53.132;6.408;2023-08-01T16:04:42;18.40;99.90
59208;DHT22;44977;53.132;6.408;2023-08-01T16:09:43;18.40;99.90
59208;DHT22;44977;53.132;6.408;2023-08-01T16:14:43;18.70;99.90
59208;DHT22;44977;53.132;6.408;2023-08-01T16:19:44;18.80;99.90
59208;DHT22;44977;53.132;6.408;2023-08-01T16:24:45;18.80;99.90
59208;DHT22;44977;53.132;6.408;2023-08-01T16:29:47;18.90;99.90
59208;DHT22;44977;53.132;6.408;2023-08-01T16:34:48;18.90;99.90
59208;DHT22;44977;53.132;6.408;2023-08-01T16:39:48;18.80;99.90
59208;DHT22;44977;53.132;6.408;2023-08-01T16:44:49;18.90;99.90
59208;DHT22;44977;53.132;6.408;2023-08-01T16:49:54;18.90;99.90
59208;DHT22;44977;53.132;6.408;2023-08-01T16:54:58;18.80;99.90
59208;DHT22;44977;53.132;6.408;2023-08-01T16:59:58;18.70;99.90
59208;DHT22;44977;53.132;6.408;2023-08-01T17:05:00;18.60;99.90
59208;DHT22;44977;53.132;6.408;2023-08-01T17:10:02;18.60;99.90
59208;DHT22;44977;53.132;6.408;2023-08-01T17:15:04;18.50;99.90
59208;DHT22;44977;53.132;6.408;2023-08-01T17:20:05;18.40;99.90
59208;DHT22;44977;53.132;6.408;2023-08-01T17:25:06;18.30;99.90
59208;DHT22;44977;53.132;6.408;2023-08-01T17:30:07;18.30;99.90
59208;DHT22;44977;53.132;6.408;2023-08-01T17:35:08;18.20;99.90
59208;DHT22;44977;53.132;6.408;2023-08-01T17:40:09;18.20;99.90
59208;DHT22;44977;53.132;6.408;2023-08-01T17:45:10;18.10;99.90
59208;DHT22;44977;53.132;6.408;2023-08-01T17:50:11;18.00;99.90
59208;DHT22;44977;53.132;6.408;2023-08-01T17:55:12;17.90;99.90
59208;DHT22;44977;53.132;6.408;2023-08-01T18:00:13;17.90;99.90
59208;DHT22;44977;53.132;6.408;2023-08-01T18:05:14;17.80;99.90
59208;DHT22;44977;53.132;6.408;2023-08-01T18:10:15;17.70;99.90
59208;DHT22;44977;53.132;6.408;2023-08-01T18:15:16;17.60;99.90
59208;DHT22;44977;53.132;6.408;2023-08-01T18:20:16;17.60;99.90
59208;DHT22;44977;53.132;6.408;2023-08-01T18:25:17;17.50;99.90
59208;DHT22;44977;53.132;6.408;2023-08-01T18:30:18;17.50;99.90
59208;DHT22;44977;53.132;6.408;2023-08-01T18:35:19;17.40;99.90
59208;DHT22;44977;53.132;6.408;2023-08-01T18:40:20;17.30;99.90
59208;DHT22;44977;53.132;6.408;2023-08-01T18:45:20;17.30;99.90
59208;DHT22;44977;53.132;6.408;2023-08-01T18:50:21;17.20;99.90
59208;DHT22;44977;53.132;6.408;2023-08-01T18:55:22;17.20;99.90
59208;DHT22;44977;53.132;6.408;2023-08-01T19:00:23;17.10;99.90
59208;DHT22;44977;53.132;6.408;2023-08-01T19:05:25;16.90;99.90
59208;DHT22;44977;53.132;6.408;2023-08-01T19:10:26;16.80;99.90
59208;DHT22;44977;53.132;6.408;2023-08-01T19:15:27;16.70;99.90
59208;DHT22;44977;53.132;6.408;2023-08-01T19:20:30;16.60;99.90
59208;DHT22;44977;53.132;6.408;2023-08-01T19:25:31;16.50;99.90
59208;DHT22;44977;53.132;6.408;2023-08-01T19:30:32;16.50;99.90
59208;DHT22;44977;53.132;6.408;2023-08-01T19:35:41;16.50;99.90
59208;DHT22;44977;53.132;6.408;2023-08-01T19:40:42;16.50;99.90
59208;DHT22;44977;53.132;6.408;2023-08-01T19:45:44;16.50;99.90
59208;DHT22;44977;53.132;6.408;2023-08-01T19:50:45;16.50;99.90
59208;DHT22;44977;53.132;6.408;2023-08-01T19:55:52;16.50;99.90
59208;DHT22;44977;53.132;6.408;2023-08-01T20:00:53;16.40;99.90
59208;DHT22;44977;53.132;6.408;2023-08-01T20:06:00;16.40;99.90
59208;DHT22;44977;53.132;6.408;2023-08-01T20:11:01;16.30;99.90
59208;DHT22;44977;53.132;6.408;2023-08-01T20:16:03;16.30;99.90
59208;DHT22;44977;53.132;6.408;2023-08-01T20:21:03;16.30;99.90
59208;DHT22;44977;53.132;6.408;2023-08-01T20:26:05;16.30;99.90
59208;DHT22;44977;53.132;6.408;2023-08-01T20:31:06;16.30;99.90
59208;DHT22;44977;53.132;6.408;2023-08-01T20:36:07;16.30;99.90
59208;DHT22;44977;53.132;6.408;2023-08-01T20:41:12;16.30;99.90
59208;DHT22;44977;53.132;6.408;2023-08-01T20:46:15;16.20;99.90
59208;DHT22;44977;53.132;6.408;2023-08-01T20:51:16;16.20;99.90
59208;DHT22;44977;53.132;6.408;2023-08-01T20:56:17;16.20;99.90
59208;DHT22;44977;53.132;6.408;2023-08-01T21:01:17;16.20;99.90
59208;DHT22;44977;53.132;6.408;2023-08-01T21:06:18;16.10;99.90
59208;DHT22;44977;53.132;6.408;2023-08-01T21:11:19;16.20;99.90
59208;DHT22;44977;53.132;6.408;2023-08-01T21:16:20;16.10;99.90
59208;DHT22;44977;53.132;6.408;2023-08-01T21:21:21;16.10;99.90
59208;DHT22;44977;53.132;6.408;2023-08-01T21:26:21;16.10;99.90
59208;DHT22;44977;53.132;6.408;2023-08-01T21:31:22;16.10;99.90
59208;DHT22;44977;53.132;6.408;2023-08-01T21:36:23;16.10;99.90
59208;DHT22;44977;53.132;6.408;2023-08-01T21:41:24;16.10;99.90
59208;DHT22;44977;53.132;6.408;2023-08-01T21:46:25;16.10;99.90
59208;DHT22;44977;53.132;6.408;2023-08-01T21:51:25;16.00;99.90
59208;DHT22;44977;53.132;6.408;2023-08-01T21:56:26;16.10;99.90
59208;DHT22;44977;53.132;6.408;2023-08-01T22:01:27;16.00;99.90
59208;DHT22;44977;53.132;6.408;2023-08-01T22:06:27;16.00;99.90
59208;DHT22;44977;53.132;6.408;2023-08-01T22:11:28;16.00;99.90
59208;DHT22;44977;53.132;6.408;2023-08-01T22:16:29;15.90;99.90
59208;DHT22;44977;53.132;6.408;2023-08-01T22:21:29;16.00;99.90
59208;DHT22;44977;53.132;6.408;2023-08-01T22:26:33;15.90;99.90
59208;DHT22;44977;53.132;6.408;2023-08-01T22:31:33;15.90;99.90
59208;DHT22;44977;53.132;6.408;2023-08-01T22:36:34;15.80;99.90
59208;DHT22;44977;53.132;6.408;2023-08-01T22:41:35;15.80;99.90
59208;DHT22;44977;53.132;6.408;2023-08-01T22:46:35;15.80;99.90
59208;DHT22;44977;53.132;6.408;2023-08-01T22:51:36;15.80;99.90
59208;DHT22;44977;53.132;6.408;2023-08-01T22:56:37;15.70;99.90
59208;DHT22;44977;53.132;6.408;2023-08-01T23:01:37;15.70;99.90
59208;DHT22;44977;53.132;6.408;2023-08-01T23:06:38;15.70;99.90
59208;DHT22;44977;53.132;6.408;2023-08-01T23:11:39;15.70;99.90
59208;DHT22;44977;53.132;6.408;2023-08-01T23:16:40;15.60;99.90
59208;DHT22;44977;53.132;6.408;2023-08-01T23:21:40;15.60;99.90
59208;DHT22;44977;53.132;6.408;2023-08-01T23:26:41;15.60;99.90
59208;DHT22;44977;53.132;6.408;2023-08-01T23:31:42;15.60;99.90
59208;DHT22;44977;53.132;6.408;2023-08-01T23:36:42;15.60;99.90
59208;DHT22;44977;53.132;6.408;2023-08-01T23:41:43;15.60;99.90
59208;DHT22;44977;53.132;6.408;2023-08-01T23:46:44;15.60;99.90
59208;DHT22;44977;53.132;6.408;2023-08-01T23:51:44;15.60;99.90
59208;DHT22;44977;53.132;6.408;2023-08-01T23:56:45;15.60;99.90
